Time;durP1;ratioP1;P1;durP2;ratioP2;P2;SDS_P1;SDS_P2;PMS_P1;PMS_P2;Temp;Humidity;BMP_temperature;BMP_pressure;BME280_temperature;BME280_humidity;BME280_pressure;Samples;Min_cycle;Max_cycle;Signal;HPM_P1;HPM_P2
2023/06/13 00:01:22;;;;;;;4.07;3.67;;;21.60;99.90;;;;;;5092460;28;20279;-80
2023/06/13 00:03:49;;;;;;;5.00;4.28;;;21.60;99.90;;;;;;5088056;28;20228;-83
2023/06/13 00:06:17;;;;;;;4.88;3.55;;;21.60;99.90;;;;;;5073632;28;20232;-84
2023/06/13 00:08:44;;;;;;;3.53;3.22;;;21.60;99.90;;;;;;5072912;28;20196;-81
2023/06/13 00:11:11;;;;;;;5.05;3.60;;;21.50;99.90;;;;;;5072577;28;20597;-81
2023/06/13 00:13:39;;;;;;;4.25;3.47;;;21.50;99.90;;;;;;5072353;28;20741;-85
2023/06/13 00:16:07;;;;;;;6.82;3.55;;;21.40;99.90;;;;;;5072844;28;20575;-82
2023/06/13 00:18:35;;;;;;;4.95;3.67;;;21.40;99.90;;;;;;5072613;28;20276;-81
2023/06/13 00:21:03;;;;;;;6.80;3.67;;;21.40;99.90;;;;;;5072604;28;20305;-80
2023/06/13 00:23:31;;;;;;;8.32;4.10;;;21.40;99.90;;;;;;5073132;28;20213;-80
2023/06/13 00:25:58;;;;;;;6.63;4.28;;;21.50;99.90;;;;;;5072626;28;20339;-82
2023/06/13 00:28:25;;;;;;;4.25;3.60;;;21.50;99.90;;;;;;5072172;28;20208;-82
2023/06/13 00:30:52;;;;;;;6.45;3.47;;;21.40;99.90;;;;;;5073237;28;20197;-80
2023/06/13 00:33:19;;;;;;;6.78;4.10;;;21.40;99.90;;;;;;5073227;28;20208;-84
2023/06/13 00:35:46;;;;;;;3.70;3.40;;;21.40;99.90;;;;;;5073037;28;20193;-83
2023/06/13 00:38:13;;;;;;;7.35;4.15;;;21.30;99.90;;;;;;5072693;28;20193;-80
2023/06/13 00:40:42;;;;;;;7.82;4.00;;;21.30;99.90;;;;;;5072482;28;20201;-82
2023/06/13 00:43:09;;;;;;;4.30;3.85;;;21.30;99.90;;;;;;5072115;28;20205;-84
2023/06/13 00:45:35;;;;;;;8.55;4.07;;;21.20;99.90;;;;;;5073617;28;20259;-84
2023/06/13 00:48:05;;;;;;;4.53;4.05;;;21.30;99.90;;;;;;5072498;28;20229;-80
2023/06/13 00:50:35;;;;;;;6.93;3.70;;;21.30;99.90;;;;;;5077537;28;20265;-80
2023/06/13 00:53:08;;;;;;;6.13;3.78;;;21.30;99.90;;;;;;5093034;28;20242;-81
2023/06/13 00:55:35;;;;;;;3.97;3.47;;;21.20;99.90;;;;;;5080117;28;20593;-81
2023/06/13 00:58:06;;;;;;;5.47;3.90;;;21.20;99.90;;;;;;5072155;28;20288;-83
2023/06/13 01:00:34;;;;;;;4.18;3.78;;;21.10;99.90;;;;;;5073217;28;20262;-83
2023/06/13 01:03:02;;;;;;;6.45;4.00;;;21.10;99.90;;;;;;5071956;28;20216;-81
2023/06/13 01:05:31;;;;;;;6.05;4.15;;;21.10;99.90;;;;;;5084359;28;20228;-81
2023/06/13 01:07:59;;;;;;;4.13;3.72;;;21.00;99.90;;;;;;5092612;28;20201;-85
2023/06/13 01:10:26;;;;;;;5.25;4.00;;;21.00;99.90;;;;;;5084660;28;20213;-83
2023/06/13 01:13:01;;;;;;;5.57;3.60;;;20.90;99.90;;;;;;5072470;28;20250;-81
2023/06/13 01:15:33;;;;;;;5.90;3.92;;;20.90;99.90;;;;;;5072153;28;20185;-81
2023/06/13 01:18:03;;;;;;;6.28;4.30;;;20.90;99.90;;;;;;5071429;28;20239;-84
2023/06/13 01:20:32;;;;;;;4.38;3.95;;;20.80;99.90;;;;;;5072776;28;20220;-83
2023/06/13 01:23:18;;;;;;;5.55;3.78;;;20.80;99.90;;;;;;5072625;28;20193;-82
2023/06/13 01:25:57;;;;;;;6.13;3.97;;;20.80;99.90;;;;;;5071320;28;20213;-82
2023/06/13 01:28:26;;;;;;;5.03;3.60;;;20.70;99.90;;;;;;5071904;28;20201;-80
2023/06/13 01:30:55;;;;;;;5.15;3.83;;;20.60;99.90;;;;;;5071392;28;20213;-80
2023/06/13 01:33:23;;;;;;;3.83;3.30;;;20.60;99.90;;;;;;5072596;28;20197;-83
2023/06/13 01:35:50;;;;;;;4.05;3.70;;;20.60;99.90;;;;;;5072342;28;20620;-81
2023/06/13 01:38:17;;;;;;;3.92;3.47;;;20.50;99.90;;;;;;5072223;28;20224;-83
2023/06/13 01:40:44;;;;;;;4.57;3.83;;;20.50;99.90;;;;;;5071006;28;20199;-80
2023/06/13 01:43:11;;;;;;;4.00;3.55;;;20.40;99.90;;;;;;5071350;28;20201;-79
2023/06/13 01:45:40;;;;;;;5.35;4.28;;;20.40;99.90;;;;;;5070681;28;20307;-81
2023/06/13 01:48:15;;;;;;;5.32;3.78;;;20.30;99.90;;;;;;5071762;28;20586;-81
2023/06/13 01:50:48;;;;;;;4.10;3.70;;;20.30;99.90;;;;;;5071701;28;20195;-79
2023/06/13 01:53:25;;;;;;;4.15;3.75;;;20.30;99.90;;;;;;5071416;28;20217;-81
2023/06/13 01:55:57;;;;;;;5.93;3.65;;;20.30;99.90;;;;;;5073451;28;20272;-81
2023/06/13 01:58:27;;;;;;;4.05;3.60;;;20.30;99.90;;;;;;5075431;28;20481;-79
2023/06/13 02:00:57;;;;;;;5.32;3.85;;;20.20;99.90;;;;;;5075702;28;20296;-80
2023/06/13 02:03:25;;;;;;;4.07;3.67;;;20.20;99.90;;;;;;5075749;28;20201;-79
2023/06/13 02:05:52;;;;;;;4.55;3.90;;;20.20;99.90;;;;;;5080356;23;20217;-80
2023/06/13 02:08:19;;;;;;;4.25;3.88;;;20.10;99.90;;;;;;5055574;28;20190;-82
2023/06/13 02:10:46;;;;;;;3.78;3.47;;;20.10;99.90;;;;;;5056214;28;20205;-83
2023/06/13 02:13:13;;;;;;;4.55;3.97;;;20.00;99.90;;;;;;5056725;28;20204;-80
2023/06/13 02:15:40;;;;;;;6.85;4.28;;;20.00;99.90;;;;;;5055791;28;20205;-83
2023/06/13 02:18:09;;;;;;;6.10;3.95;;;19.90;99.90;;;;;;5055144;28;20748;-80
2023/06/13 02:20:36;;;;;;;5.05;4.07;;;19.90;99.90;;;;;;5050494;28;20500;-83
2023/06/13 02:23:03;;;;;;;7.32;3.75;;;19.90;99.90;;;;;;5035839;28;20630;-84
2023/06/13 02:25:30;;;;;;;4.45;4.05;;;19.90;99.90;;;;;;5035888;28;20241;-81
2023/06/13 02:27:57;;;;;;;5.28;4.65;;;19.80;99.90;;;;;;5035407;28;20599;-84
2023/06/13 02:30:24;;;;;;;4.93;4.20;;;19.80;99.90;;;;;;5035052;28;20482;-83
2023/06/13 02:32:52;;;;;;;5.57;4.50;;;19.80;99.90;;;;;;5034964;28;20199;-80
2023/06/13 02:35:23;;;;;;;5.45;4.18;;;19.80;99.90;;;;;;5034388;28;20268;-81
2023/06/13 02:37:53;;;;;;;4.80;4.35;;;19.70;99.90;;;;;;5035273;28;20599;-78
2023/06/13 02:40:20;;;;;;;5.45;4.40;;;19.70;99.90;;;;;;5035567;28;20312;-79
2023/06/13 02:42:48;;;;;;;7.57;5.03;;;19.70;99.90;;;;;;5034264;28;20622;-79
2023/06/13 02:45:16;;;;;;;7.57;4.90;;;19.60;99.90;;;;;;5034742;28;20229;-79
2023/06/13 02:47:42;;;;;;;5.53;4.53;;;19.50;99.90;;;;;;5035018;28;20209;-80
2023/06/13 02:50:10;;;;;;;5.07;4.20;;;19.50;99.90;;;;;;5034585;28;20207;-81
2023/06/13 02:52:39;;;;;;;5.38;3.80;;;19.50;99.90;;;;;;5034580;28;20199;-81
2023/06/13 02:55:08;;;;;;;6.55;5.05;;;19.40;99.90;;;;;;5035268;28;20260;-78
2023/06/13 02:57:37;;;;;;;5.70;4.82;;;19.40;99.90;;;;;;5034075;28;20198;-80
2023/06/13 03:00:07;;;;;;;6.30;4.95;;;19.40;99.90;;;;;;5034944;28;20210;-79
2023/06/13 03:02:36;;;;;;;7.20;4.82;;;19.40;99.90;;;;;;5034206;28;20210;-79
2023/06/13 03:05:05;;;;;;;8.93;5.70;;;19.30;99.90;;;;;;5034435;28;20630;-79
2023/06/13 03:07:32;;;;;;;6.47;4.65;;;19.30;99.90;;;;;;5033959;28;20329;-80
2023/06/13 03:10:02;;;;;;;5.78;4.97;;;19.20;99.90;;;;;;5034231;28;20202;-81
2023/06/13 03:12:29;;;;;;;5.57;4.40;;;19.20;99.90;;;;;;5034219;28;20203;-79
2023/06/13 03:14:56;;;;;;;6.32;5.72;;;19.20;99.90;;;;;;5034683;28;20226;-78
2023/06/13 03:17:23;;;;;;;7.88;4.90;;;19.20;99.90;;;;;;5033641;28;20201;-81
2023/06/13 03:19:51;;;;;;;6.43;4.75;;;19.20;99.90;;;;;;5033964;28;20205;-79
2023/06/13 03:22:18;;;;;;;5.07;4.68;;;19.10;99.90;;;;;;5033978;28;20234;-79
2023/06/13 03:24:45;;;;;;;6.05;4.45;;;19.10;99.90;;;;;;5033244;28;20199;-79
2023/06/13 03:27:14;;;;;;;8.18;5.00;;;19.10;99.90;;;;;;5033799;28;20297;-79
2023/06/13 03:29:41;;;;;;;5.57;5.00;;;19.10;99.90;;;;;;5033683;28;20215;-77
2023/06/13 03:32:09;;;;;;;6.90;5.95;;;19.10;99.90;;;;;;5033964;28;20289;-81
2023/06/13 03:34:38;;;;;;;7.10;5.25;;;19.10;99.90;;;;;;5033648;28;20205;-80
2023/06/13 03:37:06;;;;;;;5.75;5.15;;;19.10;99.90;;;;;;5050352;28;20207;-81
2023/06/13 03:39:33;;;;;;;5.85;5.32;;;19.00;99.90;;;;;;5053090;28;20209;-79
2023/06/13 03:42:00;;;;;;;7.18;5.38;;;19.00;99.90;;;;;;5052495;28;20283;-81
2023/06/13 03:44:29;;;;;;;7.82;4.85;;;19.00;99.90;;;;;;5053125;28;20198;-79
2023/06/13 03:46:56;;;;;;;7.28;5.18;;;19.00;99.90;;;;;;5053259;28;20226;-80
2023/06/13 03:49:23;;;;;;;5.90;5.30;;;18.90;99.90;;;;;;5050322;28;20275;-80
2023/06/13 03:51:50;;;;;;;4.72;4.32;;;18.90;99.90;;;;;;5033022;28;20203;-78
2023/06/13 03:54:17;;;;;;;6.47;5.00;;;18.90;99.90;;;;;;5033333;28;20339;-78
2023/06/13 03:56:44;;;;;;;6.13;4.82;;;18.90;99.90;;;;;;5033215;28;20745;-80
2023/06/13 03:59:11;;;;;;;5.93;5.25;;;18.90;99.90;;;;;;5033300;28;20199;-77
2023/06/13 04:01:41;;;;;;;6.65;4.88;;;18.90;99.90;;;;;;5022459;28;20202;-77
2023/06/13 04:04:08;;;;;;;7.47;5.15;;;18.90;99.90;;;;;;5033305;28;20211;-78
2023/06/13 04:06:37;;;;;;;6.40;5.57;;;18.90;99.90;;;;;;5050286;28;20245;-78
2023/06/13 04:09:05;;;;;;;7.15;5.10;;;19.00;99.90;;;;;;5053244;28;20197;-80
2023/06/13 04:11:32;;;;;;;7.30;5.03;;;19.00;99.90;;;;;;5034927;28;20211;-78
2023/06/13 04:13:59;;;;;;;10.90;5.18;;;19.00;99.90;;;;;;5032683;28;20186;-77
2023/06/13 04:16:26;;;;;;;6.90;5.10;;;19.00;99.90;;;;;;5032756;28;20199;-80
2023/06/13 04:18:55;;;;;;;5.65;5.03;;;19.10;99.90;;;;;;5032347;28;20290;-79
2023/06/13 04:21:24;;;;;;;5.20;4.70;;;19.10;99.90;;;;;;5032019;28;20210;-80
2023/06/13 04:23:51;;;;;;;6.30;5.07;;;19.20;99.90;;;;;;5033411;28;20290;-81
2023/06/13 04:26:18;;;;;;;7.88;5.63;;;19.20;99.90;;;;;;5049583;28;20317;-78
2023/06/13 04:28:46;;;;;;;5.32;4.82;;;19.30;99.90;;;;;;5052017;28;20193;-79
2023/06/13 04:31:13;;;;;;;7.55;5.93;;;19.30;99.90;;;;;;5052560;28;20212;-78
2023/06/13 04:33:40;;;;;;;5.75;5.15;;;19.40;99.90;;;;;;5041268;28;20629;-79
2023/06/13 04:36:09;;;;;;;5.88;5.28;;;19.40;99.90;;;;;;5032053;28;20210;-78
2023/06/13 04:38:37;;;;;;;6.75;4.70;;;19.30;99.90;;;;;;5032499;28;20220;-78
2023/06/13 04:41:04;;;;;;;5.80;5.18;;;19.30;99.90;;;;;;5031833;28;20195;-80
2023/06/13 04:43:33;;;;;;;5.80;5.00;;;19.30;99.90;;;;;;5033021;28;20194;-80
2023/06/13 04:46:03;;;;;;;6.32;4.75;;;19.30;99.90;;;;;;5032915;28;20669;-80
2023/06/13 04:48:30;;;;;;;6.30;5.35;;;19.30;99.90;;;;;;5032037;28;20202;-79
2023/06/13 04:50:58;;;;;;;7.38;5.20;;;19.40;99.90;;;;;;5032802;28;20603;-79
2023/06/13 04:53:27;;;;;;;6.38;5.32;;;19.50;99.90;;;;;;5032340;28;20260;-79
2023/06/13 04:55:54;;;;;;;7.97;5.25;;;19.60;99.90;;;;;;5032533;28;20285;-79
2023/06/13 04:58:23;;;;;;;7.03;5.43;;;19.70;99.90;;;;;;5031973;28;20615;-81
2023/06/13 05:00:50;;;;;;;5.65;4.85;;;19.80;99.90;;;;;;5032328;28;20195;-82
2023/06/13 05:03:18;;;;;;;6.07;5.13;;;20.10;99.90;;;;;;5031958;28;20191;-82
2023/06/13 05:05:45;;;;;;;6.22;5.30;;;20.30;99.90;;;;;;5032192;28;20223;-81
2023/06/13 05:08:13;;;;;;;6.03;5.40;;;20.70;99.90;;;;;;5032700;28;20195;-81
2023/06/13 05:10:42;;;;;;;10.13;4.85;;;21.00;99.90;;;;;;5031822;28;20195;-78
2023/06/13 05:13:09;;;;;;;6.55;4.90;;;21.40;99.90;;;;;;5052345;28;20198;-80
2023/06/13 05:15:36;;;;;;;7.13;5.07;;;21.70;99.90;;;;;;5052194;28;20202;-79
2023/06/13 05:18:06;;;;;;;5.38;4.82;;;22.00;99.90;;;;;;5051931;28;20211;-80
2023/06/13 05:20:33;;;;;;;5.00;4.30;;;22.30;99.90;;;;;;5050609;28;20224;-79
2023/06/13 05:23:02;;;;;;;5.63;4.40;;;22.60;99.90;;;;;;5051354;28;20197;-81
2023/06/13 05:25:30;;;;;;;7.22;4.60;;;23.00;99.90;;;;;;5052258;28;20228;-85
2023/06/13 05:27:58;;;;;;;5.15;4.45;;;23.30;99.90;;;;;;5054424;28;20197;-83
2023/06/13 05:30:25;;;;;;;5.13;4.50;;;23.60;99.90;;;;;;5038871;28;20297;-84
2023/06/13 05:32:52;;;;;;;4.90;4.40;;;23.90;99.90;;;;;;5035661;28;20204;-81
2023/06/13 05:35:19;;;;;;;6.43;4.70;;;24.30;99.90;;;;;;5069374;28;20209;-79
2023/06/13 05:37:46;;;;;;;5.00;4.38;;;24.50;99.90;;;;;;5070731;28;20204;-79
2023/06/13 05:40:13;;;;;;;6.45;4.65;;;24.70;99.90;;;;;;5035833;28;20375;-80
2023/06/13 05:42:40;;;;;;;7.13;4.60;;;25.00;99.90;;;;;;5075531;28;20209;-79
2023/06/13 05:45:10;;;;;;;6.32;4.28;;;25.20;99.90;;;;;;5055990;28;20218;-84
2023/06/13 05:47:37;;;;;;;9.90;4.93;;;25.30;99.90;;;;;;5037427;28;20297;-83
2023/06/13 05:50:05;;;;;;;9.05;4.85;;;25.50;99.90;;;;;;5037268;28;20290;-85
2023/06/13 05:52:33;;;;;;;5.55;3.90;;;25.50;99.90;;;;;;5037176;28;20549;-81
2023/06/13 05:55:01;;;;;;;5.10;4.45;;;25.70;99.90;;;;;;5056890;28;20547;-84
2023/06/13 05:57:39;;;;;;;5.55;4.10;;;25.60;99.90;;;;;;5057420;28;20719;-82
2023/06/13 06:00:13;;;;;;;4.90;4.40;;;25.80;99.90;;;;;;5049688;28;20202;-82
2023/06/13 06:02:40;;;;;;;8.10;5.20;;;26.00;99.90;;;;;;5036579;28;20207;-79
2023/06/13 06:05:08;;;;;;;5.15;4.65;;;26.00;99.90;;;;;;5036368;28;20289;-79
2023/06/13 06:07:35;;;;;;;6.35;4.32;;;26.20;99.90;;;;;;5035909;28;20582;-83
2023/06/13 06:10:02;;;;;;;4.88;4.38;;;26.40;99.90;;;;;;5036546;28;20204;-84
2023/06/13 06:12:29;;;;;;;8.27;4.53;;;26.40;99.90;;;;;;5036325;28;20198;-81
2023/06/13 06:14:56;;;;;;;5.80;5.18;;;26.50;99.90;;;;;;5036658;28;20198;-82
2023/06/13 06:17:24;;;;;;;5.50;4.63;;;26.70;99.90;;;;;;5035895;28;20230;-82
2023/06/13 06:19:52;;;;;;;5.15;4.55;;;26.60;99.90;;;;;;5035573;28;20213;-82
2023/06/13 06:22:19;;;;;;;5.80;4.88;;;26.80;99.90;;;;;;5053436;28;20237;-85
2023/06/13 06:24:46;;;;;;;6.38;4.43;;;27.00;99.90;;;;;;5056685;28;20253;-83
2023/06/13 06:27:13;;;;;;;7.03;4.55;;;27.10;99.90;;;;;;5052277;28;20749;-83
2023/06/13 06:29:42;;;;;;;7.50;5.00;;;27.40;99.90;;;;;;5036385;28;20198;-82
2023/06/13 06:32:10;;;;;;;5.35;4.85;;;27.60;99.90;;;;;;5036118;28;20198;-80
2023/06/13 06:34:38;;;;;;;5.10;4.60;;;27.60;99.90;;;;;;5035006;28;20595;-82
2023/06/13 06:37:05;;;;;;;6.63;4.72;;;27.50;99.90;;;;;;5035780;28;20207;-82
2023/06/13 06:39:34;;;;;;;6.57;4.13;;;27.70;99.90;;;;;;5035581;28;20492;-81
2023/06/13 06:42:01;;;;;;;6.38;4.35;;;28.00;99.90;;;;;;5033858;28;20385;-83
2023/06/13 06:44:28;;;;;;;4.78;4.18;;;28.40;99.90;;;;;;5035527;28;20205;-81
2023/06/13 06:46:55;;;;;;;5.60;4.68;;;28.60;99.90;;;;;;5034860;28;20228;-81
2023/06/13 06:49:21;;;;;;;5.35;4.50;;;28.80;99.90;;;;;;5034452;28;20289;-81
2023/06/13 06:51:50;;;;;;;5.63;4.72;;;29.00;99.90;;;;;;5043760;28;20293;-80
2023/06/13 06:54:17;;;;;;;6.68;3.95;;;29.30;99.90;;;;;;5035273;28;20208;-80
2023/06/13 06:56:43;;;;;;;5.35;4.38;;;29.50;99.90;;;;;;5033876;28;20191;-80
2023/06/13 06:59:10;;;;;;;5.20;3.83;;;29.70;99.90;;;;;;5034518;28;20302;-80
2023/06/13 07:01:37;;;;;;;5.00;4.30;;;29.90;99.90;;;;;;5031779;28;20662;-81
2023/06/13 07:04:04;;;;;;;5.13;4.50;;;30.20;99.90;;;;;;5070733;28;20208;-81
2023/06/13 07:06:31;;;;;;;4.85;4.25;;;30.10;99.90;;;;;;5066439;28;20261;-80
2023/06/13 07:09:00;;;;;;;5.40;3.92;;;30.30;99.90;;;;;;5043550;28;20518;-82
2023/06/13 07:11:27;;;;;;;4.25;3.85;;;30.40;99.90;;;;;;5040584;28;20202;-80
2023/06/13 07:13:54;;;;;;;6.90;4.00;;;30.40;99.90;;;;;;5053920;28;20565;-80
2023/06/13 07:16:22;;;;;;;4.43;4.03;;;30.60;99.90;;;;;;5052913;28;20197;-81
2023/06/13 07:18:52;;;;;;;4.60;4.20;;;30.90;99.90;;;;;;5036007;28;20195;-80
2023/06/13 07:21:19;;;;;;;4.63;3.33;;;31.20;99.90;;;;;;5037999;28;20218;-83
2023/06/13 07:23:46;;;;;;;4.38;3.97;;;31.40;99.90;;;;;;5052696;28;20186;-81
2023/06/13 07:26:15;;;;;;;5.65;4.20;;;31.50;99.90;;;;;;5053295;28;20489;-81
2023/06/13 07:28:43;;;;;;;5.50;4.20;;;31.60;99.90;;;;;;5052822;28;20201;-80
2023/06/13 07:31:11;;;;;;;6.00;4.35;;;31.70;99.90;;;;;;5051982;28;20265;-79
2023/06/13 07:33:38;;;;;;;7.45;4.95;;;31.60;99.90;;;;;;5032990;28;20647;-80
2023/06/13 07:36:05;;;;;;;5.07;4.57;;;31.80;99.90;;;;;;5033404;28;20238;-81
2023/06/13 07:38:32;;;;;;;6.70;4.68;;;31.70;99.90;;;;;;5033024;28;20289;-81
2023/06/13 07:40:59;;;;;;;6.45;4.82;;;31.50;99.90;;;;;;5049487;28;20728;-81
2023/06/13 07:43:28;;;;;;;5.20;4.30;;;31.00;99.90;;;;;;5053474;28;20204;-82
2023/06/13 07:45:54;;;;;;;6.35;4.20;;;30.60;99.90;;;;;;5053318;28;20564;-81
2023/06/13 07:48:21;;;;;;;7.82;4.80;;;30.60;99.90;;;;;;5042929;28;20230;-82
2023/06/13 07:50:48;;;;;;;7.53;4.72;;;30.50;99.90;;;;;;5033487;28;20191;-83
2023/06/13 07:53:15;;;;;;;6.00;4.50;;;30.40;99.90;;;;;;5033739;28;20677;-79
2023/06/13 07:55:46;;;;;;;5.25;4.55;;;30.20;99.90;;;;;;5033210;28;20202;-84
2023/06/13 07:58:13;;;;;;;6.28;5.07;;;30.00;99.90;;;;;;5033213;28;20206;-84
2023/06/13 08:00:41;;;;;;;5.25;4.68;;;29.90;99.90;;;;;;5033493;28;20190;-83
2023/06/13 08:03:08;;;;;;;6.65;4.93;;;29.80;99.90;;;;;;5033893;28;20222;-81
2023/06/13 08:05:35;;;;;;;6.63;4.95;;;29.80;99.90;;;;;;5032605;28;20217;-81
2023/06/13 08:08:02;;;;;;;6.78;4.63;;;29.90;99.90;;;;;;5032948;28;20634;-80
2023/06/13 08:10:29;;;;;;;6.72;5.10;;;30.00;99.90;;;;;;5049553;28;20208;-82
2023/06/13 08:12:56;;;;;;;7.22;5.10;;;30.00;99.90;;;;;;5049490;28;20213;-81
2023/06/13 08:15:23;;;;;;;5.65;4.47;;;29.80;99.90;;;;;;5032450;28;20202;-80
2023/06/13 08:17:52;;;;;;;5.88;4.65;;;30.00;99.90;;;;;;5033285;28;20201;-79
2023/06/13 08:20:19;;;;;;;7.45;4.82;;;30.00;99.90;;;;;;5051234;28;20703;-82
2023/06/13 08:22:46;;;;;;;6.60;5.00;;;30.00;99.90;;;;;;5052884;28;20235;-80
2023/06/13 08:25:13;;;;;;;5.07;4.53;;;30.30;99.90;;;;;;5052625;28;20198;-83
2023/06/13 08:27:41;;;;;;;8.07;5.05;;;30.20;99.90;;;;;;5050795;28;20233;-80
2023/06/13 08:30:09;;;;;;;6.30;4.88;;;30.20;99.90;;;;;;5032335;28;20217;-80
2023/06/13 08:32:36;;;;;;;5.72;5.00;;;30.00;99.90;;;;;;5032032;28;20382;-81
2023/06/13 08:35:05;;;;;;;5.00;4.57;;;29.90;99.90;;;;;;5031721;28;20226;-79
2023/06/13 08:37:31;;;;;;;5.97;5.05;;;30.10;99.90;;;;;;5031045;28;20285;-83
2023/06/13 08:39:58;;;;;;;5.38;4.88;;;30.00;99.90;;;;;;5030612;28;20610;-78
2023/06/13 08:42:26;;;;;;;6.38;4.68;;;29.90;99.90;;;;;;5031442;28;20642;-81
2023/06/13 08:44:53;;;;;;;7.80;5.03;;;29.80;99.90;;;;;;5031817;28;20196;-82
2023/06/13 08:47:20;;;;;;;5.55;4.57;;;29.60;99.90;;;;;;5031997;28;20516;-80
2023/06/13 08:49:50;;;;;;;4.53;4.13;;;29.80;99.90;;;;;;5032281;28;20603;-79
2023/06/13 08:52:19;;;;;;;6.05;4.70;;;29.90;99.90;;;;;;5032849;28;20272;-80
2023/06/13 08:54:46;;;;;;;6.75;5.05;;;29.90;99.90;;;;;;5031685;28;20670;-82
2023/06/13 08:57:17;;;;;;;6.15;5.18;;;30.00;99.90;;;;;;5031862;28;20202;-81
2023/06/13 08:59:46;;;;;;;5.43;4.93;;;30.00;99.90;;;;;;5032255;28;20218;-81
2023/06/13 09:02:18;;;;;;;9.57;5.47;;;30.20;99.90;;;;;;5031678;28;20381;-79
2023/06/13 09:04:47;;;;;;;9.18;4.65;;;30.30;99.90;;;;;;5031521;28;20201;-81
2023/06/13 09:07:16;;;;;;;5.57;4.90;;;30.20;99.90;;;;;;5032352;28;20313;-83
2023/06/13 09:09:45;;;;;;;5.10;4.22;;;30.60;99.90;;;;;;5031080;28;20582;-78
2023/06/13 09:12:13;;;;;;;6.20;4.68;;;30.80;99.90;;;;;;5032395;28;20190;-81
2023/06/13 09:14:41;;;;;;;7.25;5.20;;;30.70;99.90;;;;;;5032158;28;20241;-80
2023/06/13 09:17:08;;;;;;;5.50;4.60;;;30.60;99.90;;;;;;5031633;28;20281;-81
2023/06/13 09:19:35;;;;;;;6.60;4.40;;;30.80;99.90;;;;;;5032334;28;20207;-84
2023/06/13 09:22:02;;;;;;;5.70;5.07;;;30.80;99.90;;;;;;5031976;28;20289;-80
2023/06/13 09:24:32;;;;;;;8.57;5.07;;;30.60;99.90;;;;;;5031951;28;20253;-76
2023/06/13 09:27:02;;;;;;;5.55;4.57;;;30.20;99.90;;;;;;5032074;28;20221;-79
2023/06/13 09:29:34;;;;;;;7.90;4.70;;;30.20;99.90;;;;;;5031386;28;20202;-81
2023/06/13 09:32:02;;;;;;;6.68;4.28;;;30.00;99.90;;;;;;5032048;28;20276;-77
2023/06/13 09:34:29;;;;;;;6.13;4.90;;;30.40;99.90;;;;;;5031922;28;20202;-80
2023/06/13 09:36:57;;;;;;;7.32;4.65;;;30.40;99.90;;;;;;5030830;28;20203;-83
2023/06/13 09:39:27;;;;;;;7.72;4.63;;;30.50;99.90;;;;;;5031878;28;20202;-79
2023/06/13 09:41:54;;;;;;;6.35;4.70;;;30.00;99.90;;;;;;5031721;28;20556;-80
2023/06/13 09:44:23;;;;;;;5.97;4.20;;;30.00;99.90;;;;;;5031075;28;20207;-81
2023/06/13 09:46:51;;;;;;;7.00;4.35;;;30.30;99.90;;;;;;5031513;28;20210;-79
2023/06/13 09:49:18;;;;;;;10.52;4.60;;;30.40;99.90;;;;;;5032002;28;20198;-78
2023/06/13 09:51:45;;;;;;;6.32;4.13;;;30.30;99.90;;;;;;5031296;28;20199;-78
2023/06/13 09:54:12;;;;;;;5.43;4.50;;;30.30;99.90;;;;;;5032361;28;20635;-80
2023/06/13 09:56:41;;;;;;;5.90;4.00;;;30.00;99.90;;;;;;5031733;28;20226;-80
2023/06/13 09:59:08;;;;;;;6.95;4.70;;;30.00;99.90;;;;;;5031176;28;20206;-79
2023/06/13 10:01:38;;;;;;;8.68;4.47;;;30.40;99.90;;;;;;5031988;28;20226;-78
2023/06/13 10:04:06;;;;;;;4.35;3.95;;;30.30;99.90;;;;;;5031521;28;20583;-80
2023/06/13 10:06:36;;;;;;;4.95;4.20;;;30.60;99.90;;;;;;5031039;28;20709;-80
2023/06/13 10:09:03;;;;;;;9.07;4.25;;;30.70;99.90;;;;;;5031810;28;20234;-78
2023/06/13 10:11:34;;;;;;;5.82;4.60;;;30.70;99.90;;;;;;5031358;28;20633;-81
2023/06/13 10:14:06;;;;;;;10.63;4.07;;;30.70;99.90;;;;;;5032044;28;20191;-80
2023/06/13 10:16:38;;;;;;;8.18;4.78;;;30.40;99.90;;;;;;5032455;28;20212;-80
2023/06/13 10:19:07;;;;;;;6.35;4.65;;;30.20;99.90;;;;;;5036124;28;20183;-79
2023/06/13 10:21:36;;;;;;;6.80;4.97;;;29.90;99.90;;;;;;5036701;28;20233;-81
2023/06/13 10:24:04;;;;;;;6.65;4.53;;;29.80;99.90;;;;;;5041887;28;20198;-82
2023/06/13 10:26:36;;;;;;;9.85;4.82;;;29.70;99.90;;;;;;5063276;28;20274;-82
2023/06/13 10:29:43;;;;;;;7.00;4.07;;;29.80;99.90;;;;;;5076000;28;20252;-81
2023/06/13 10:32:36;;;;;;;4.50;4.10;;;29.90;99.90;;;;;;5037108;28;20212;-79
2023/06/13 10:35:38;;;;;;;8.00;4.40;;;29.80;99.90;;;;;;5055370;28;20587;-84
2023/06/13 10:38:54;;;;;;;8.20;4.60;;;29.80;99.90;;;;;;5019004;28;20288;-82
2023/06/13 10:41:52;;;;;;;6.72;4.07;;;29.70;99.90;;;;;;5028055;28;20214;-80
2023/06/13 10:44:27;;;;;;;7.20;4.55;;;29.70;99.90;;;;;;5064436;28;20610;-81
2023/06/13 10:46:54;;;;;;;6.85;4.28;;;29.60;89.50;;;;;;5053016;28;20217;-81
2023/06/13 10:49:22;;;;;;;6.35;3.90;;;29.70;85.00;;;;;;5053620;28;20253;-81
2023/06/13 10:51:49;;;;;;;5.82;4.47;;;30.00;90.10;;;;;;5052515;28;20210;-80
2023/06/13 10:54:17;;;;;;;8.23;4.40;;;29.90;83.70;;;;;;5034218;28;20209;-81
2023/06/13 10:56:45;;;;;;;5.75;4.45;;;29.80;88.70;;;;;;5034218;28;20595;-80
2023/06/13 10:59:14;;;;;;;8.90;4.80;;;29.80;90.10;;;;;;5034298;28;20190;-82
2023/06/13 11:01:42;;;;;;;5.45;4.38;;;29.90;90.60;;;;;;5042836;28;20237;-79
2023/06/13 11:04:11;;;;;;;5.18;3.80;;;30.00;75.70;;;;;;5054018;28;20834;-80
2023/06/13 11:06:41;;;;;;;4.28;3.88;;;30.10;75.30;;;;;;5054482;28;20233;-82
2023/06/13 11:09:19;;;;;;;6.35;4.30;;;30.30;68.20;;;;;;5039390;28;20321;-81
2023/06/13 11:11:50;;;;;;;5.50;4.25;;;30.20;65.60;;;;;;5033684;28;20605;-84
2023/06/13 11:14:20;;;;;;;9.13;4.82;;;30.20;73.00;;;;;;5034094;28;20209;-80
2023/06/13 11:16:47;;;;;;;5.80;4.30;;;30.30;90.00;;;;;;5033699;28;20344;-82
2023/06/13 11:19:15;;;;;;;6.97;4.10;;;30.20;1.00;;;;;;5034382;28;20289;-81
2023/06/13 11:21:49;;;;;;;4.72;3.92;;;29.70;1.00;;;;;;5034093;28;20227;-83
2023/06/13 11:24:16;;;;;;;7.05;4.00;;;29.80;1.00;;;;;;5034528;28;20511;-81
2023/06/13 11:26:44;;;;;;;4.97;4.47;;;29.80;1.00;;;;;;5033913;28;20754;-81
2023/06/13 11:29:12;;;;;;;6.43;4.43;;;29.90;1.00;;;;;;5033082;28;20520;-80
2023/06/13 11:31:40;;;;;;;4.43;3.88;;;29.90;1.00;;;;;;5033887;28;20229;-82
2023/06/13 11:34:12;;;;;;;6.38;3.95;;;29.90;1.00;;;;;;5033791;28;20244;-81
2023/06/13 11:36:43;;;;;;;4.28;3.88;;;30.20;1.00;;;;;;5033336;28;20736;-80
2023/06/13 11:39:12;;;;;;;8.05;4.13;;;30.10;1.00;;;;;;5034469;28;20546;-80
2023/06/13 11:41:40;;;;;;;4.90;4.25;;;30.20;1.00;;;;;;5034693;28;20240;-81
2023/06/13 11:44:07;;;;;;;6.97;4.53;;;30.10;1.00;;;;;;5033689;28;20201;-80
2023/06/13 11:46:35;;;;;;;4.10;3.70;;;30.20;1.00;;;;;;5033412;28;20198;-83
2023/06/13 11:49:02;;;;;;;6.13;4.22;;;30.00;1.00;;;;;;5033417;28;20218;-81
2023/06/13 11:51:30;;;;;;;3.95;3.55;;;30.20;1.00;;;;;;5032637;28;20784;-83
2023/06/13 11:53:59;;;;;;;4.57;3.97;;;30.70;1.00;;;;;;5033821;28;20205;-81
2023/06/13 11:56:30;;;;;;;6.22;4.32;;;31.20;1.00;;;;;;5034059;28;20199;-82
2023/06/13 11:58:58;;;;;;;5.50;3.65;;;31.10;1.00;;;;;;5033209;28;20194;-82
2023/06/13 12:01:26;;;;;;;6.03;4.13;;;31.10;1.00;;;;;;5034284;28;20607;-85
2023/06/13 12:03:55;;;;;;;4.68;3.88;;;30.90;99.90;;;;;;5053516;28;20213;-82
2023/06/13 12:06:22;;;;;;;4.28;3.88;;;31.00;1.00;;;;;;5053176;28;20308;-83
2023/06/13 12:08:51;;;;;;;6.70;4.40;;;31.20;1.00;;;;;;5053268;28;20313;-82
2023/06/13 12:11:19;;;;;;;4.75;3.97;;;31.20;99.90;;;;;;5035613;28;20289;-81
2023/06/13 12:13:55;;;;;;;4.72;4.28;;;31.10;99.90;;;;;;5032896;28;20215;-81
2023/06/13 12:16:25;;;;;;;7.38;4.35;;;31.20;99.90;;;;;;5049520;28;20288;-82
2023/06/13 12:18:54;;;;;;;5.60;3.80;;;31.10;99.90;;;;;;5052743;28;20193;-81
2023/06/13 12:21:22;;;;;;;4.45;3.45;;;31.20;99.90;;;;;;5052971;28;20206;-82
2023/06/13 12:23:50;;;;;;;4.72;3.83;;;31.00;99.90;;;;;;5034959;28;20659;-83
2023/06/13 12:26:18;;;;;;;9.65;3.85;;;31.00;99.90;;;;;;5032291;28;20203;-83
2023/06/13 12:28:47;;;;;;;5.50;4.20;;;30.70;99.90;;;;;;5032117;28;20322;-82
2023/06/13 12:31:15;;;;;;;6.30;4.10;;;30.60;99.90;;;;;;5032727;28;20281;-81
2023/06/13 12:33:42;;;;;;;5.43;4.18;;;30.70;99.90;;;;;;5031548;28;20297;-82
2023/06/13 12:36:11;;;;;;;5.65;3.88;;;30.60;99.90;;;;;;5033264;28;20612;-83
2023/06/13 12:38:41;;;;;;;6.95;4.30;;;30.50;99.90;;;;;;5032371;28;20596;-81
2023/06/13 12:41:15;;;;;;;4.55;4.15;;;30.40;99.90;;;;;;5031901;28;20202;-82
2023/06/13 12:43:45;;;;;;;4.65;4.00;;;30.40;99.90;;;;;;5032989;28;20199;-78
2023/06/13 12:46:14;;;;;;;6.97;3.97;;;30.40;99.90;;;;;;5031420;28;20202;-79
2023/06/13 12:48:44;;;;;;;4.05;3.65;;;30.50;99.90;;;;;;5032165;28;20631;-80
2023/06/13 12:51:27;;;;;;;4.72;3.58;;;30.40;99.90;;;;;;5032384;28;20585;-79
2023/06/13 12:54:07;;;;;;;4.90;3.88;;;30.50;99.90;;;;;;5031661;28;20573;-80
2023/06/13 12:56:34;;;;;;;4.78;4.25;;;30.40;99.90;;;;;;5032362;28;20226;-80